TimeMST,TemperatureF,Dew PointF,Humidity,Sea Level PressureIn,VisibilityMPH,Wind Direction,Wind SpeedMPH,Gust SpeedMPH,PrecipitationIn,Events,Conditions,WindDirDegrees,DateUTC
12:53 AM,25.0,16.0,69,29.93,10.0,North,3.5,-,N/A,,Clear,350,2013-02-05 07:53:00
1:53 AM,26.1,17.1,69,29.95,10.0,North,5.8,-,N/A,,Clear,350,2013-02-05 08:53:00
2:53 AM,25.0,16.0,69,29.99,10.0,North,5.8,-,N/A,,Clear,350,2013-02-05 09:53:00
3:53 AM,26.1,17.1,69,29.99,10.0,NW,6.9,-,N/A,,Clear,320,2013-02-05 10:53:00
4:53 AM,21.9,15.1,75,30.04,10.0,NW,5.8,-,N/A,,Clear,310,2013-02-05 11:53:00
5:53 AM,19.9,14.0,78,30.07,10.0,Calm,Calm,-,N/A,,Clear,0,2013-02-05 12:53:00
6:53 AM,19.9,12.9,74,30.10,10.0,North,5.8,-,N/A,,Clear,360,2013-02-05 13:53:00
7:53 AM,19.9,14.0,78,30.12,10.0,Calm,Calm,-,N/A,,Clear,0,2013-02-05 14:53:00
8:53 AM,27.0,19.0,72,30.12,10.0,SSE,4.6,-,N/A,,Clear,160,2013-02-05 15:53:00
9:53 AM,36.0,19.0,50,30.04,10.0,East,4.6,-,N/A,,Clear,100,2013-02-05 16:53:00
10:53 AM,42.1,19.9,41,30.04,10.0,SE,8.1,-,N/A,,Clear,130,2013-02-05 17:53:00
11:53 AM,44.1,18.0,35,29.98,10.0,SE,9.2,-,N/A,,Partly Cloudy,130,2013-02-05 18:53:00
12:53 PM,46.0,19.0,34,29.94,10.0,SSE,9.2,-,N/A,,Clear,150,2013-02-05 19:53:00
1:53 PM,46.9,19.9,34,29.89,10.0,ESE,5.8,-,N/A,,Clear,120,2013-02-05 20:53:00
2:53 PM,48.0,19.9,33,29.88,10.0,Calm,Calm,-,N/A,,Clear,0,2013-02-05 21:53:00
3:53 PM,48.0,19.9,33,29.87,10.0,Calm,Calm,-,N/A,,Clear,0,2013-02-05 22:53:00
4:53 PM,43.0,19.0,38,29.90,10.0,South,4.6,-,N/A,,Clear,180,2013-02-05 23:53:00
5:53 PM,41.0,17.1,38,29.90,10.0,WSW,9.2,-,N/A,,Clear,250,2013-02-06 00:53:00
6:53 PM,42.1,16.0,35,29.90,10.0,SW,8.1,-,N/A,,Clear,220,2013-02-06 01:53:00
7:53 PM,34.0,17.1,50,29.92,10.0,Calm,Calm,-,N/A,,Clear,0,2013-02-06 02:53:00
8:53 PM,37.0,17.1,44,29.86,10.0,Calm,Calm,-,N/A,,Clear,0,2013-02-06 03:53:00
9:53 PM,32.0,16.0,52,29.85,10.0,Calm,Calm,-,N/A,,Clear,0,2013-02-06 04:53:00
10:53 PM,35.1,16.0,46,29.80,10.0,SW,3.5,-,N/A,,Clear,220,2013-02-06 05:53:00